Time;durP1;ratioP1;P1;durP2;ratioP2;P2;SDS_P1;SDS_P2;PMS_P1;PMS_P2;Temp;Humidity;BMP_temperature;BMP_pressure;BME280_temperature;BME280_humidity;BME280_pressure;Samples;Min_cycle;Max_cycle;Signal;HPM_P1;HPM_P2
2022/04/23 00:02:51;;;;;;;4.57;3.03;;;;;;;11.41;89.45;100676.44;6226531;28;20058;-69
2022/04/23 00:05:54;;;;;;;5.47;3.45;;;;;;;11.39;88.73;100677.47;6226643;28;20069;-68
2022/04/23 00:08:56;;;;;;;6.07;3.50;;;;;;;11.37;87.88;100672.28;6226753;28;20074;-69
2022/04/23 00:11:58;;;;;;;5.15;3.03;;;;;;;11.35;88.16;100674.16;6225659;28;20052;-68
2022/04/23 00:14:59;;;;;;;6.95;3.35;;;;;;;11.36;88.42;100675.03;6226754;28;20104;-69
2022/04/23 00:18:01;;;;;;;3.70;2.75;;;;;;;11.34;87.44;100661.94;6226196;28;20058;-68
2022/04/23 00:21:04;;;;;;;6.05;3.22;;;;;;;11.34;88.15;100667.19;6225640;28;20058;-68
2022/04/23 00:24:06;;;;;;;4.72;2.95;;;;;;;11.34;87.70;100671.63;6226258;28;20053;-68
2022/04/23 00:27:07;;;;;;;4.88;3.00;;;;;;;11.32;87.23;100673.50;6226116;28;20057;-68
2022/04/23 00:30:09;;;;;;;9.45;3.70;;;;;;;11.29;87.78;100664.00;6225854;28;20057;-68
2022/04/23 00:33:11;;;;;;;5.95;3.28;;;;;;;11.27;87.63;100671.13;6225379;28;20061;-68
2022/04/23 00:36:14;;;;;;;5.03;2.75;;;;;;;11.19;88.04;100668.09;6226012;28;20413;-68
2022/04/23 00:39:15;;;;;;;4.05;2.47;;;;;;;11.09;88.41;100673.03;6225813;28;20052;-68
2022/04/23 00:42:17;;;;;;;5.22;3.17;;;;;;;10.99;88.53;100676.25;6225323;28;20064;-68
2022/04/23 00:45:18;;;;;;;3.40;2.45;;;;;;;10.90;87.82;100672.34;6225706;28;20076;-68
2022/04/23 00:48:21;;;;;;;4.63;2.70;;;;;;;10.83;88.88;100676.28;6226061;28;20046;-68
2022/04/23 00:51:26;;;;;;;4.93;2.67;;;;;;;10.71;88.01;100672.53;6224808;28;20046;-68
2022/04/23 00:54:27;;;;;;;4.45;2.75;;;;;;;10.61;88.79;100677.44;6225608;28;20045;-68
2022/04/23 00:57:29;;;;;;;3.63;2.72;;;;;;;10.55;89.84;100674.31;6225588;28;20058;-68
2022/04/23 01:00:30;;;;;;;4.78;2.72;;;;;;;10.46;89.62;100683.53;6224976;28;20045;-68
2022/04/23 01:03:32;;;;;;;4.60;2.50;;;;;;;10.40;90.35;100678.59;6225276;28;20057;-68
2022/04/23 01:06:36;;;;;;;3.85;2.47;;;;;;;10.30;89.74;100675.63;6225286;28;20468;-68
2022/04/23 01:09:37;;;;;;;5.15;2.80;;;;;;;10.24;89.56;100677.69;6225243;28;20490;-68
2022/04/23 01:12:39;;;;;;;4.15;2.63;;;;;;;10.16;87.90;100676.31;6223830;28;20046;-68
2022/04/23 01:15:43;;;;;;;2.33;1.98;;;;;;;10.12;88.37;100679.19;6225212;28;20050;-68
2022/04/23 01:18:44;;;;;;;3.65;2.53;;;;;;;10.06;86.19;100683.00;6224668;28;20530;-68
2022/04/23 01:21:47;;;;;;;2.88;2.05;;;;;;;9.99;87.56;100683.38;6224163;28;20042;-68
2022/04/23 01:24:50;;;;;;;3.45;2.13;;;;;;;9.94;86.83;100683.63;6224536;28;20624;-68
2022/04/23 01:27:52;;;;;;;3.55;1.88;;;;;;;9.90;87.76;100689.94;6224976;28;20187;-68
2022/04/23 01:30:57;;;;;;;3.60;2.53;;;;;;;9.84;87.58;100687.66;6223861;28;20537;-68
2022/04/23 01:33:59;;;;;;;2.70;2.10;;;;;;;9.78;87.36;100682.72;6224531;28;20050;-68
2022/04/23 01:37:01;;;;;;;5.55;1.98;;;;;;;9.71;87.33;100687.41;6224497;28;20050;-68
2022/04/23 01:40:04;;;;;;;4.50;1.85;;;;;;;9.64;85.94;100684.28;6224022;28;20058;-68
2022/04/23 01:43:06;;;;;;;3.58;1.63;;;;;;;9.61;86.64;100691.44;6223781;28;20425;-68
2022/04/23 01:46:07;;;;;;;3.70;2.15;;;;;;;9.53;85.39;100686.56;6224240;28;20418;-68
2022/04/23 01:49:08;;;;;;;2.90;2.10;;;;;;;9.50;86.21;100685.91;6224509;28;20053;-68
2022/04/23 01:52:12;;;;;;;3.35;2.03;;;;;;;9.42;85.83;100682.78;6223328;28;20054;-68
2022/04/23 01:55:13;;;;;;;4.00;2.10;;;;;;;9.35;86.41;100688.31;6224403;28;20057;-68
2022/04/23 01:58:14;;;;;;;2.25;1.80;;;;;;;9.32;87.32;100683.25;6223983;28;20508;-68
2022/04/23 02:01:17;;;;;;;4.15;1.63;;;;;;;9.25;86.94;100688.84;6223530;28;20050;-68
2022/04/23 02:04:18;;;;;;;3.35;2.15;;;;;;;9.24;87.16;100689.78;6224226;28;20052;-68
2022/04/23 02:07:21;;;;;;;3.55;2.10;;;;;;;9.20;87.41;100693.47;6222905;28;20057;-69
2022/04/23 02:10:22;;;;;;;3.72;1.98;;;;;;;9.15;87.67;100689.31;6223157;28;20137;-68
2022/04/23 02:13:24;;;;;;;2.97;1.98;;;;;;;9.09;86.93;100694.84;6223588;28;20054;-68
2022/04/23 02:16:26;;;;;;;4.25;2.28;;;;;;;9.03;87.54;100689.88;6223830;28;20061;-68
2022/04/23 02:19:28;;;;;;;3.10;2.05;;;;;;;8.97;87.89;100691.97;6223409;28;20505;-68
2022/04/23 02:22:30;;;;;;;3.42;2.25;;;;;;;8.96;88.65;100695.50;6223041;28;20180;-68
2022/04/23 02:25:34;;;;;;;2.65;2.03;;;;;;;8.89;89.10;100694.94;6223456;28;20054;-68
2022/04/23 02:28:38;;;;;;;4.13;2.42;;;;;;;8.80;88.63;100693.59;6223594;28;20145;-68
2022/04/23 02:31:40;;;;;;;2.63;2.00;;;;;;;8.79;88.83;100696.31;6222446;28;20486;-68
2022/04/23 02:34:41;;;;;;;2.88;2.10;;;;;;;8.73;89.93;100688.75;6223137;28;20053;-71
2022/04/23 02:37:45;;;;;;;4.22;2.15;;;;;;;8.68;89.23;100699.44;6223087;28;20050;-71
2022/04/23 02:40:47;;;;;;;4.35;2.22;;;;;;;8.67;89.52;100707.34;6222555;28;20050;-70
2022/04/23 02:43:48;;;;;;;4.28;2.47;;;;;;;8.60;88.88;100699.78;6223173;28;20077;-70
2022/04/23 02:46:49;;;;;;;4.30;2.00;;;;;;;8.60;90.13;100702.41;6222932;28;20090;-70
2022/04/23 02:49:51;;;;;;;3.35;2.25;;;;;;;8.58;89.02;100695.50;6222670;28;20054;-70
2022/04/23 02:52:55;;;;;;;5.65;2.67;;;;;;;8.54;88.68;100705.31;6222338;28;20041;-71
2022/04/23 02:55:56;;;;;;;4.38;2.63;;;;;;;8.51;88.96;100705.44;6223006;28;20568;-70
2022/04/23 02:58:59;;;;;;;7.43;2.75;;;;;;;8.48;89.16;100702.94;6222708;28;20064;-70
2022/04/23 03:02:00;;;;;;;4.07;2.55;;;;;;;8.44;89.95;100697.91;6222054;28;20092;-70
2022/04/23 03:05:02;;;;;;;4.85;2.05;;;;;;;8.37;89.71;100703.44;6222605;28;20054;-70
2022/04/23 03:08:05;;;;;;;3.65;2.38;;;;;;;8.32;91.12;100708.00;6222760;28;20074;-70
2022/04/23 03:11:07;;;;;;;4.60;2.45;;;;;;;8.26;90.37;100697.78;6221686;28;20046;-70
2022/04/23 03:14:10;;;;;;;3.75;2.53;;;;;;;8.22;90.75;100704.09;6222115;28;20100;-70
2022/04/23 03:17:12;;;;;;;3.80;2.25;;;;;;;8.17;91.52;100698.19;6222494;28;20053;-70
2022/04/23 03:20:14;;;;;;;4.65;2.80;;;;;;;8.14;92.02;100693.97;6221782;28;20053;-70
2022/04/23 03:23:17;;;;;;;6.07;3.20;;;;;;;8.11;90.66;100699.31;6221854;28;20057;-70
2022/04/23 03:26:19;;;;;;;4.05;2.35;;;;;;;8.07;91.33;100691.66;6222339;28;20057;-70
2022/04/23 03:29:21;;;;;;;4.32;2.55;;;;;;;8.03;91.22;100693.56;6222346;28;20054;-70
2022/04/23 03:32:23;;;;;;;5.63;2.80;;;;;;;8.01;91.20;100689.31;6221126;28;20080;-70
2022/04/23 03:35:24;;;;;;;4.38;2.85;;;;;;;7.98;90.42;100692.06;6221908;28;20057;-70
2022/04/23 03:38:27;;;;;;;4.88;3.05;;;;;;;7.99;91.37;100694.59;6222120;28;20054;-70
2022/04/23 03:41:28;;;;;;;5.32;2.58;;;;;;;7.94;91.41;100691.34;6221346;28;20042;-70
2022/04/23 03:44:30;;;;;;;5.72;2.72;;;;;;;7.86;90.59;100694.31;6221974;28;20061;-70
2022/04/23 03:47:32;;;;;;;5.70;2.38;;;;;;;7.88;91.33;100686.38;6222290;28;20054;-70
2022/04/23 03:50:35;;;;;;;3.55;2.65;;;;;;;7.85;91.96;100691.75;6221354;28;20137;-70
2022/04/23 03:53:38;;;;;;;5.28;2.83;;;;;;;7.84;93.65;100705.75;6221928;28;20050;-70
2022/04/23 03:56:40;;;;;;;5.82;2.70;;;;;;;7.80;92.74;100693.72;6221946;28;20413;-70
2022/04/23 03:59:42;;;;;;;4.85;3.00;;;;;;;7.73;93.20;100693.13;6221603;28;20057;-70
2022/04/23 04:02:44;;;;;;;6.13;2.92;;;;;;;7.71;95.21;100702.78;6221705;28;20413;-70
2022/04/23 04:05:47;;;;;;;4.65;3.00;;;;;;;7.68;94.76;100699.47;6221744;28;20052;-70
2022/04/23 04:08:51;;;;;;;5.78;3.22;;;;;;;7.63;95.39;100695.28;6221719;28;20493;-70
2022/04/23 04:12:06;;;;;;;4.82;3.10;;;;;;;7.63;96.49;100697.91;6220859;28;20547;-70
2022/04/23 04:15:10;;;;;;;5.80;3.17;;;;;;;7.61;96.36;100697.09;6221867;28;20061;-70
2022/04/23 04:18:12;;;;;;;6.35;3.35;;;;;;;7.64;97.26;100698.75;6221876;28;20061;-70
2022/04/23 04:21:14;;;;;;;10.75;3.30;;;;;;;7.60;97.17;100697.19;6221039;28;20046;-70
2022/04/23 04:24:17;;;;;;;8.05;2.95;;;;;;;7.62;98.33;100695.34;6221824;28;20049;-70
2022/04/23 04:27:18;;;;;;;4.85;3.05;;;;;;;7.63;98.14;100700.53;6221812;28;20045;-70
2022/04/23 04:30:20;;;;;;;6.32;3.08;;;;;;;7.62;98.73;100700.56;6223625;28;20053;-70
2022/04/23 04:33:22;;;;;;;7.80;3.78;;;;;;;7.61;98.75;100701.50;6226136;28;20046;-70
2022/04/23 04:36:23;;;;;;;5.60;3.30;;;;;;;7.59;99.40;100701.56;6226039;28;20490;-70
2022/04/23 04:39:26;;;;;;;8.88;3.83;;;;;;;7.61;100.00;100707.56;6225976;28;20192;-70
2022/04/23 04:42:27;;;;;;;5.30;3.45;;;;;;;7.59;100.00;100716.41;6225218;28;20053;-70
2022/04/23 04:45:29;;;;;;;5.28;3.15;;;;;;;7.59;100.00;100708.56;6225801;28;20092;-70
2022/04/23 04:48:30;;;;;;;6.68;3.20;;;;;;;7.62;100.00;100713.66;6225749;28;20069;-70
2022/04/23 04:51:33;;;;;;;6.82;2.95;;;;;;;7.57;100.00;100713.84;6224809;28;20057;-70
2022/04/23 04:54:36;;;;;;;6.28;3.78;;;;;;;7.54;100.00;100713.97;6225710;28;20048;-70
2022/04/23 04:57:37;;;;;;;7.05;3.63;;;;;;;7.56;100.00;100721.75;6225511;28;20050;-70
2022/04/23 05:00:39;;;;;;;6.43;3.42;;;;;;;7.57;100.00;100724.28;6224779;28;20061;-71
2022/04/23 05:03:40;;;;;;;8.10;3.72;;;;;;;7.62;100.00;100721.50;6225357;28;20046;-70
2022/04/23 05:06:42;;;;;;;7.20;3.80;;;;;;;7.65;100.00;100731.84;6225706;28;20049;-70
2022/04/23 05:09:44;;;;;;;7.22;3.63;;;;;;;7.71;100.00;100730.72;6225108;28;20049;-70
2022/04/23 05:12:45;;;;;;;5.10;2.92;;;;;;;7.70;100.00;100737.72;6224491;28;20042;-70
2022/04/23 05:15:48;;;;;;;7.13;3.25;;;;;;;7.71;100.00;100742.03;6224972;28;20053;-70
2022/04/23 05:18:50;;;;;;;4.93;3.67;;;;;;;7.71;100.00;100741.19;6224865;28;20421;-70
2022/04/23 05:21:51;;;;;;;6.13;3.45;;;;;;;7.73;100.00;100742.00;6224349;28;20072;-70
2022/04/23 05:24:54;;;;;;;6.50;3.63;;;;;;;7.75;100.00;100750.59;6224828;28;20050;-70
2022/04/23 05:27:55;;;;;;;5.57;3.17;;;;;;;7.78;100.00;100753.09;6224893;28;20057;-70
2022/04/23 05:30:57;;;;;;;5.88;3.50;;;;;;;7.78;100.00;100753.94;6223918;28;20460;-70
2022/04/23 05:33:58;;;;;;;8.95;4.22;;;;;;;7.84;100.00;100750.22;6224727;28;20489;-70
2022/04/23 05:36:59;;;;;;;8.30;3.55;;;;;;;7.86;99.46;100756.25;6224372;28;20049;-70
2022/04/23 05:40:02;;;;;;;5.63;3.70;;;;;;;7.93;99.99;100756.84;6224445;28;20057;-70
2022/04/23 05:43:04;;;;;;;6.88;3.78;;;;;;;7.96;100.00;100754.94;6224083;28;20524;-70
2022/04/23 05:46:05;;;;;;;9.10;4.05;;;;;;;8.00;99.52;100751.28;6224602;28;20060;-70
2022/04/23 05:49:06;;;;;;;5.82;3.25;;;;;;;8.02;99.13;100757.28;6224394;28;20057;-70
2022/04/23 05:52:08;;;;;;;10.20;3.78;;;;;;;8.05;99.78;100759.78;6223458;28;20046;-70
2022/04/23 05:55:11;;;;;;;7.07;3.40;;;;;;;8.09;100.00;100761.38;6224181;28;20441;-70
2022/04/23 05:58:13;;;;;;;8.15;3.67;;;;;;;8.12;100.00;100761.22;6224142;28;20054;-70
2022/04/23 06:01:14;;;;;;;6.03;3.30;;;;;;;8.21;99.74;100761.75;6223451;28;20076;-70
2022/04/23 06:04:16;;;;;;;9.07;3.95;;;;;;;8.24;98.87;100761.63;6223922;28;20046;-70
2022/04/23 06:07:17;;;;;;;7.00;3.92;;;;;;;8.31;97.55;100757.78;6224105;28;20061;-70
2022/04/23 06:10:20;;;;;;;7.72;4.03;;;;;;;8.38;96.21;100754.03;6223206;28;20046;-70
2022/04/23 06:13:21;;;;;;;5.65;3.67;;;;;;;8.41;95.56;100761.75;6223936;28;20486;-70
2022/04/23 06:16:23;;;;;;;6.15;3.75;;;;;;;8.48;96.20;100771.03;6223627;28;20417;-70
2022/04/23 06:19:24;;;;;;;8.57;3.53;;;;;;;8.53;95.80;100770.84;6223551;28;20058;-70
2022/04/23 06:22:26;;;;;;;7.43;3.83;;;;;;;8.58;95.03;100769.72;6222876;28;20508;-70
2022/04/23 06:25:29;;;;;;;7.57;4.60;;;;;;;8.66;92.30;100776.38;6223503;28;20045;-70
2022/04/23 06:28:30;;;;;;;7.20;4.13;;;;;;;8.69;94.13;100776.25;6223815;28;20457;-70
2022/04/23 06:31:32;;;;;;;6.22;3.85;;;;;;;8.72;94.46;100773.47;6222464;28;20046;-70
2022/04/23 06:34:35;;;;;;;9.70;4.18;;;;;;;8.78;92.19;100776.69;6223132;28;20054;-70
2022/04/23 06:37:41;;;;;;;16.55;3.92;;;;;;;8.82;91.48;100774.78;6223032;28;20058;-70
2022/04/23 06:40:44;;;;;;;6.75;3.67;;;;;;;8.93;90.90;100771.66;6222584;28;20054;-70
2022/04/23 06:43:45;;;;;;;7.20;3.65;;;;;;;8.97;90.31;100776.69;6222609;28;20061;-70
2022/04/23 06:46:46;;;;;;;7.38;3.53;;;;;;;9.02;90.38;100772.06;6223208;28;20509;-70
2022/04/23 06:49:48;;;;;;;6.07;3.45;;;;;;;9.05;90.05;100786.81;6222571;28;20053;-70
2022/04/23 06:52:49;;;;;;;4.95;3.42;;;;;;;9.11;89.44;100790.00;6221973;28;20091;-70
2022/04/23 06:55:52;;;;;;;7.50;4.00;;;;;;;9.17;88.66;100788.84;6222891;28;20073;-70
2022/04/23 06:58:53;;;;;;;7.25;3.75;;;;;;;9.24;87.91;100785.03;6222692;28;20049;-70
2022/04/23 07:01:55;;;;;;;9.85;4.00;;;;;;;9.33;89.77;100778.50;6221859;28;20517;-70
2022/04/23 07:04:56;;;;;;;7.47;4.13;;;;;;;9.34;87.96;100785.44;6222402;28;20050;-70
2022/04/23 07:07:58;;;;;;;8.18;4.15;;;;;;;9.39;88.14;100781.66;6222618;28;20075;-70
2022/04/23 07:11:01;;;;;;;5.40;3.50;;;;;;;9.45;84.94;100783.19;6221909;28;20053;-70
2022/04/23 07:14:02;;;;;;;7.13;3.88;;;;;;;9.52;86.31;100784.56;6222161;28;20056;-70
2022/04/23 07:17:04;;;;;;;6.88;3.97;;;;;;;9.60;84.48;100782.44;6222324;28;20057;-70
2022/04/23 07:20:07;;;;;;;7.63;3.83;;;;;;;9.64;84.83;100780.50;6222169;28;20053;-70
2022/04/23 07:26:28;;;;;;;8.18;4.63;;;;;;;9.77;83.40;100781.59;6219585;28;20509;-70
2022/04/23 07:29:30;;;;;;;6.20;4.22;;;;;;;9.82;82.14;100776.13;6220545;28;20050;-68
2022/04/23 07:32:31;;;;;;;9.40;4.65;;;;;;;9.94;80.53;100774.66;6221309;28;20061;-68
2022/04/23 07:38:52;;;;;;;7.15;4.32;;;;;;;10.05;81.15;100773.19;6222374;28;20144;-70
2022/04/23 07:41:55;;;;;;;8.82;4.03;;;;;;;10.11;81.08;100778.13;6221309;28;20050;-69
2022/04/23 07:44:56;;;;;;;6.00;3.50;;;;;;;10.20;79.64;100770.72;6222222;28;20056;-70
2022/04/23 07:47:57;;;;;;;7.25;4.15;;;;;;;10.27;79.04;100775.59;6222337;28;20054;-70
2022/04/23 07:50:59;;;;;;;5.97;3.58;;;;;;;10.40;76.05;100778.41;6221216;28;20046;-68
2022/04/23 07:54:00;;;;;;;9.18;3.90;;;;;;;10.49;73.31;100774.47;6221507;28;20417;-68
2022/04/23 07:57:03;;;;;;;8.48;4.30;;;;;;;10.53;72.21;100773.38;6220515;28;20058;-68
2022/04/23 08:00:06;;;;;;;7.38;3.67;;;;;;;10.56;74.08;100770.59;6219838;28;20061;-68
2022/04/23 08:03:08;;;;;;;5.35;3.15;;;;;;;10.65;71.06;100770.13;6216995;28;20046;-68
2022/04/23 08:06:11;;;;;;;7.28;3.88;;;;;;;10.79;70.13;100764.13;6225624;28;20049;-68
2022/04/23 08:09:12;;;;;;;7.60;3.47;;;;;;;10.88;68.88;100756.56;6226543;28;20060;-68
2022/04/23 08:12:16;;;;;;;4.85;3.30;;;;;;;10.86;65.95;100761.09;6221625;28;20068;-68
2022/04/23 08:15:18;;;;;;;4.88;3.10;;;;;;;10.96;67.39;100760.59;6226065;28;20054;-68
2022/04/23 08:18:19;;;;;;;5.18;3.40;;;;;;;11.08;66.10;100757.25;6224074;28;20056;-68
2022/04/23 08:21:20;;;;;;;4.32;2.95;;;;;;;11.09;67.52;100749.31;6225656;28;20068;-68
2022/04/23 08:24:22;;;;;;;5.28;3.10;;;;;;;11.15;65.84;100750.75;6202073;28;20129;-68
2022/04/23 08:27:24;;;;;;;6.78;3.05;;;;;;;11.22;64.29;100751.22;6201546;28;20054;-68
2022/04/23 08:30:34;;;;;;;4.15;3.22;;;;;;;11.31;64.56;100746.31;6201178;28;20057;-67
2022/04/23 08:36:54;;;;;;;7.20;2.88;;;;;;;11.36;63.82;100746.91;6201668;28;20050;-68
2022/04/23 08:39:55;;;;;;;8.07;3.35;;;;;;;11.41;62.88;100750.13;6201288;28;20054;-70
2022/04/23 08:42:59;;;;;;;5.38;3.08;;;;;;;11.52;62.95;100748.66;6201106;28;20054;-68
2022/04/23 08:46:03;;;;;;;4.93;2.90;;;;;;;11.57;62.41;100741.34;6201746;28;20081;-67
2022/04/23 08:49:16;;;;;;;7.03;3.25;;;;;;;11.68;62.97;100742.44;6201304;28;20065;-67
2022/04/23 08:52:19;;;;;;;5.93;3.33;;;;;;;11.75;61.13;100734.16;6200799;28;20050;-71
2022/04/23 08:55:21;;;;;;;4.68;2.78;;;;;;;11.88;60.78;100735.19;6201370;28;20133;-68
2022/04/23 08:58:23;;;;;;;3.83;2.22;;;;;;;11.79;62.07;100728.63;6201406;28;20052;-68
2022/04/23 09:01:25;;;;;;;11.02;3.75;;;;;;;11.81;61.04;100736.44;6200339;28;20050;-68
2022/04/23 09:04:26;;;;;;;5.85;3.38;;;;;;;12.01;60.98;100743.22;6201017;28;20112;-67
2022/04/23 09:07:29;;;;;;;6.65;3.15;;;;;;;12.05;59.10;100737.66;6200853;28;20054;-67
2022/04/23 09:10:44;;;;;;;3.60;2.70;;;;;;;12.17;60.60;100741.34;6200367;28;20105;-69
2022/04/23 09:13:47;;;;;;;5.47;2.78;;;;;;;12.28;58.17;100738.91;6200765;28;20050;-68
2022/04/23 09:23:40;;;;;;;4.35;2.95;;;;;;;12.43;58.87;100734.50;6219498;28;20046;-68
2022/04/23 09:26:42;;;;;;;5.20;3.20;;;;;;;12.57;56.53;100725.72;6224102;28;20046;-68
2022/04/23 09:29:58;;;;;;;5.03;2.47;;;;;;;12.53;55.65;100732.13;6223516;28;20057;-68
2022/04/23 09:33:00;;;;;;;4.07;2.47;;;;;;;12.76;55.34;100715.72;6222344;28;20052;-68
2022/04/23 09:36:03;;;;;;;4.28;2.85;;;;;;;12.82;54.73;100727.69;6220643;28;20398;-68
2022/04/23 09:39:04;;;;;;;5.25;2.92;;;;;;;12.89;55.88;100721.91;6224040;28;20489;-68
2022/04/23 09:42:13;;;;;;;5.38;2.88;;;;;;;12.96;56.70;100711.84;6223420;28;20054;-73
2022/04/23 09:45:18;;;;;;;5.07;2.58;;;;;;;13.07;55.09;100701.44;6223886;28;20046;-73
2022/04/23 09:48:19;;;;;;;4.28;2.90;;;;;;;13.16;53.77;100706.13;6224173;28;20425;-74
2022/04/23 09:51:24;;;;;;;5.05;3.05;;;;;;;13.12;54.29;100693.22;6223339;28;20046;-72
2022/04/23 09:54:27;;;;;;;4.65;2.47;;;;;;;13.15;55.95;100696.50;6224185;28;20046;-73
2022/04/23 09:57:30;;;;;;;6.95;3.03;;;;;;;13.21;53.81;100697.91;6228783;28;20054;-74
2022/04/23 10:00:33;;;;;;;5.03;2.78;;;;;;;13.36;53.52;100689.03;6228514;28;20105;-74
2022/04/23 10:03:34;;;;;;;6.03;3.15;;;;;;;13.52;52.01;100704.69;6243122;28;20056;-76
2022/04/23 10:06:37;;;;;;;6.55;2.70;;;;;;;13.71;51.42;100706.94;6235036;28;20054;-70
2022/04/23 10:09:42;;;;;;;4.43;2.88;;;;;;;13.76;49.78;100696.91;6222766;28;20042;-69
2022/04/23 10:12:45;;;;;;;4.18;2.45;;;;;;;13.78;49.84;100694.19;6220366;28;20573;-71
2022/04/23 10:15:48;;;;;;;4.85;3.28;;;;;;;13.85;48.83;100693.69;6221533;28;20046;-71
2022/04/23 10:18:50;;;;;;;7.82;3.65;;;;;;;13.90;49.96;100702.13;6222007;28;20048;-69
2022/04/23 10:21:59;;;;;;;5.13;3.00;;;;;;;13.86;50.01;100699.81;6221359;28;20115;-69
2022/04/23 10:25:07;;;;;;;;;;;;;;;13.86;50.78;100694.53;6222505;28;20050;-70
2022/04/23 10:28:09;;;;;;;4.35;2.35;;;;;;;13.99;50.30;100689.22;6219647;28;19929;-70
2022/04/23 10:31:15;;;;;;;3.33;2.20;;;;;;;14.15;49.21;100690.72;6219599;28;20045;-69
2022/04/23 10:34:34;;;;;;;2.70;1.80;;;;;;;14.36;49.23;100687.56;6222693;28;20124;-71
2022/04/23 10:37:41;;;;;;;6.90;2.70;;;;;;;14.40;49.18;100679.28;6220532;28;20048;-73
2022/04/23 10:40:42;;;;;;;4.32;2.47;;;;;;;14.57;48.03;100682.56;6222286;28;20056;-74
2022/04/23 10:43:52;;;;;;;3.80;2.55;;;;;;;14.69;47.42;100681.69;6222972;28;20054;-76
2022/04/23 10:46:58;;;;;;;6.60;2.22;;;;;;;14.91;47.05;100675.72;6223473;28;20061;-75
2022/04/23 10:50:29;;;;;;;3.05;2.30;;;;;;;14.96;46.99;100676.22;6222536;28;20049;-76
2022/04/23 10:53:49;;;;;;;4.00;2.28;;;;;;;15.04;48.63;100680.97;6222226;28;20042;-71
2022/04/23 10:56:53;;;;;;;3.92;2.38;;;;;;;15.16;45.85;100664.16;6220367;28;20394;-71
2022/04/23 10:59:55;;;;;;;4.40;2.38;;;;;;;15.21;46.96;100654.94;6221839;28;20061;-71
2022/04/23 11:03:07;;;;;;;4.60;2.45;;;;;;;15.34;45.59;100657.50;6222091;28;20046;-71
2022/04/23 11:13:25;;;;;;;4.72;2.95;;;;;;;15.88;44.53;100642.84;6223806;28;20041;-77
2022/04/23 11:16:29;;;;;;;3.35;2.05;;;;;;;16.32;44.62;100636.75;6220875;28;20053;-77
2022/04/23 11:19:32;;;;;;;7.07;2.22;;;;;;;16.53;42.42;100642.13;6221978;28;20049;-77
2022/04/23 11:22:34;;;;;;;3.80;2.13;;;;;;;16.73;41.37;100635.28;6220927;28;20041;-71
2022/04/23 11:25:35;;;;;;;4.03;1.95;;;;;;;16.86;45.67;100641.28;6221972;28;20046;-71
2022/04/23 11:28:37;;;;;;;4.03;2.00;;;;;;;17.05;42.57;100640.59;6221463;28;20053;-71
2022/04/23 11:31:38;;;;;;;2.72;1.98;;;;;;;17.51;40.68;100647.41;6220554;28;20075;-71
2022/04/23 11:34:41;;;;;;;2.97;1.70;;;;;;;18.22;39.36;100639.59;6221602;28;20045;-71
2022/04/23 11:37:43;;;;;;;3.33;2.03;;;;;;;18.54;38.01;100634.09;6221052;28;20512;-70
2022/04/23 11:40:44;;;;;;;2.22;1.67;;;;;;;18.89;37.11;100638.13;6218302;28;20050;-70
2022/04/23 11:43:45;;;;;;;2.97;1.63;;;;;;;20.08;34.97;100620.91;6220993;28;20049;-70
2022/04/23 11:46:48;;;;;;;2.58;1.98;;;;;;;20.39;35.15;100634.78;6221484;28;20069;-70
2022/04/23 11:49:51;;;;;;;3.08;2.08;;;;;;;19.93;34.04;100618.69;6220985;28;20091;-70
2022/04/23 11:53:00;;;;;;;2.08;1.55;;;;;;;20.28;33.57;100620.66;6221085;28;20054;-70
2022/04/23 11:56:01;;;;;;;;;;;;;;;21.06;32.19;100611.34;6221814;28;20129;-70
2022/04/23 11:59:06;;;;;;;2.55;1.90;;;;;;;21.98;32.93;100605.53;6220639;28;19925;-70
2022/04/23 12:02:16;;;;;;;5.03;1.67;;;;;;;21.49;32.28;100607.91;6221032;28;20046;-70
2022/04/23 12:05:28;;;;;;;2.28;1.63;;;;;;;21.45;31.75;100594.00;6221702;28;20437;-70
2022/04/23 12:08:29;;;;;;;1.48;1.05;;;;;;;21.61;33.44;100581.75;6221606;28;20052;-73
2022/04/23 12:11:31;;;;;;;2.25;1.40;;;;;;;22.86;28.52;100581.94;6221147;28;20056;-71
2022/04/23 12:14:32;;;;;;;2.30;1.77;;;;;;;22.60;28.55;100573.19;6221727;28;20057;-71
2022/04/23 12:17:45;;;;;;;1.27;1.17;;;;;;;22.56;28.69;100596.75;6221630;28;20050;-70
2022/04/23 12:20:48;;;;;;;2.08;1.50;;;;;;;22.16;30.64;100597.44;6221033;28;20101;-71
2022/04/23 12:23:50;;;;;;;1.67;1.33;;;;;;;22.32;29.96;100576.13;6221774;28;20046;-71
2022/04/23 12:27:01;;;;;;;1.60;1.38;;;;;;;23.11;29.26;100573.94;6221656;28;20057;-71
2022/04/23 12:43:30;;;;;;;2.10;1.42;;;;;;;23.35;27.01;100557.84;6220314;28;20045;-71
2022/04/23 12:46:32;;;;;;;1.60;1.20;;;;;;;22.77;27.23;100545.41;6221026;28;20129;-70
2022/04/23 12:49:48;;;;;;;2.13;1.35;;;;;;;23.21;29.24;100537.91;6221402;28;20434;-71
2022/04/23 12:52:50;;;;;;;1.38;1.13;;;;;;;23.34;29.00;100545.41;6224939;28;20127;-71
2022/04/23 12:55:52;;;;;;;1.27;1.17;;;;;;;23.32;27.71;100542.09;6225540;28;20523;-71
2022/04/23 12:58:53;;;;;;;2.10;1.30;;;;;;;23.51;27.21;100530.16;6225525;28;20056;-71
2022/04/23 13:01:55;;;;;;;2.63;1.50;;;;;;;23.55;26.84;100515.38;6224852;28;20049;-71
2022/04/23 13:04:56;;;;;;;1.35;1.00;;;;;;;22.92;27.87;100519.66;6225615;28;20046;-71
2022/04/23 13:11:28;;;;;;;1.70;1.50;;;;;;;23.47;27.29;100513.56;6224511;28;20061;-71
2022/04/23 13:14:29;;;;;;;2.75;2.45;;;;;;;23.32;26.95;100511.75;6225391;28;20068;-71
2022/04/23 13:17:31;;;;;;;1.90;1.45;;;;;;;23.51;27.40;100514.88;6221878;28;20050;-71
2022/04/23 13:20:32;;;;;;;2.03;1.48;;;;;;;23.41;27.52;100510.72;6222655;28;20137;-72
2022/04/23 13:23:35;;;;;;;1.63;1.50;;;;;;;23.71;26.92;100510.03;6224059;28;20042;-71
2022/04/23 13:26:37;;;;;;;2.72;1.35;;;;;;;23.65;28.01;100499.97;6225039;28;20057;-71
2022/04/23 13:29:38;;;;;;;1.48;1.30;;;;;;;23.53;25.75;100504.00;6224736;28;20079;-71
2022/04/23 13:32:40;;;;;;;2.13;1.38;;;;;;;23.50;27.77;100510.53;6224120;28;20049;-71
2022/04/23 13:35:42;;;;;;;2.45;1.48;;;;;;;23.83;27.51;100502.41;6224554;28;20104;-71
2022/04/23 13:38:44;;;;;;;1.45;1.35;;;;;;;24.98;25.13;100492.66;6224688;28;20556;-71
2022/04/23 13:41:46;;;;;;;3.38;1.38;;;;;;;25.36;24.63;100494.50;6223489;28;20052;-71
2022/04/23 13:44:48;;;;;;;1.27;1.17;;;;;;;24.26;25.95;100490.28;6223985;28;20041;-71
2022/04/23 13:47:50;;;;;;;1.52;1.25;;;;;;;23.62;26.68;100492.25;6223556;28;20045;-71
2022/04/23 13:50:51;;;;;;;1.67;1.30;;;;;;;23.68;29.14;100480.00;6221267;28;20050;-71
2022/04/23 13:53:54;;;;;;;2.22;1.52;;;;;;;23.76;27.32;100485.34;6223870;28;20050;-71
2022/04/23 13:56:56;;;;;;;2.65;1.40;;;;;;;24.18;26.22;100470.69;6223649;28;20049;-71
2022/04/23 13:59:57;;;;;;;1.17;1.08;;;;;;;25.40;25.88;100479.66;6223926;28;20068;-71
2022/04/23 14:12:56;;;;;;;1.40;1.27;;;;;;;26.62;22.33;100444.91;6223381;28;20509;-71
2022/04/23 14:15:58;;;;;;;1.70;1.20;;;;;;;25.90;24.20;100453.84;6223749;28;20046;-71
2022/04/23 14:19:00;;;;;;;1.83;1.30;;;;;;;25.06;24.32;100441.44;6223712;28;20761;-71
2022/04/23 14:22:02;;;;;;;1.40;1.00;;;;;;;23.96;25.88;100438.25;6222805;28;20132;-70
2022/04/23 14:25:06;;;;;;;2.95;1.55;;;;;;;25.24;25.42;100437.59;6223828;28;20441;-70
2022/04/23 14:28:07;;;;;;;1.67;1.33;;;;;;;26.66;24.13;100432.66;6223333;28;20198;-71
2022/04/23 14:31:09;;;;;;;3.65;1.45;;;;;;;27.66;21.98;100420.66;6222856;28;20501;-70
2022/04/23 14:34:10;;;;;;;2.33;1.33;;;;;;;28.95;21.90;100421.38;6223325;28;20516;-71
2022/04/23 14:37:11;;;;;;;1.80;1.20;;;;;;;28.98;21.03;100414.72;6223181;28;20046;-71
2022/04/23 14:40:14;;;;;;;1.40;1.13;;;;;;;28.52;22.63;100415.53;6222868;28;20498;-70
2022/04/23 14:43:15;;;;;;;1.50;1.38;;;;;;;27.63;21.96;100404.88;6222775;28;20416;-70
2022/04/23 14:46:17;;;;;;;2.92;1.63;;;;;;;25.77;24.56;100404.19;6223309;28;20050;-70
2022/04/23 14:49:18;;;;;;;1.35;1.23;;;;;;;27.67;23.02;100398.06;6222879;28;20061;-70
2022/04/23 14:55:40;;;;;;;2.63;1.70;;;;;;;27.60;21.42;100392.63;6222825;28;20049;-71
2022/04/23 14:58:41;;;;;;;4.07;1.25;;;;;;;25.39;24.03;100389.19;6223102;28;20517;-70
2022/04/23 15:01:43;;;;;;;1.40;1.30;;;;;;;24.19;25.86;100400.69;6222054;28;20057;-71
2022/04/23 15:04:44;;;;;;;1.35;1.13;;;;;;;25.22;25.45;100402.00;6222853;28;20060;-70
2022/04/23 15:07:45;;;;;;;2.13;1.40;;;;;;;26.15;22.68;100393.19;6222735;28;20046;-70
2022/04/23 15:10:48;;;;;;;1.88;1.70;;;;;;;26.73;23.14;100388.56;6222137;28;20049;-70